Time;durP1;ratioP1;P1;durP2;ratioP2;P2;SDS_P1;SDS_P2;PMS_P1;PMS_P2;Temp;Humidity;BMP_temperature;BMP_pressure;BME280_temperature;BME280_humidity;BME280_pressure;Samples;Min_cycle;Max_cycle;Signal;HPM_P1;HPM_P2
2024/03/13 00:02:03;;;;;;;68.05;15.95;;;;;;;5.36;100.00;97314.41;5040287;28;20537;-82
2024/03/13 00:04:41;;;;;;;60.38;14.70;;;;;;;5.32;100.00;97309.81;5041394;28;20506;-80
2024/03/13 00:07:10;;;;;;;55.08;14.85;;;;;;;5.33;100.00;97314.84;5046782;28;20440;-80
2024/03/13 00:09:45;;;;;;;50.10;12.57;;;;;;;5.32;100.00;97313.25;5042610;28;20904;-82
2024/03/13 00:12:12;;;;;;;49.72;12.40;;;;;;;5.34;100.00;97311.19;5155880;22;20430;-80
2024/03/13 00:14:40;;;;;;;34.97;10.18;;;;;;;5.35;100.00;97298.88;5038555;28;20756;-81
2024/03/13 00:17:10;;;;;;;45.25;12.18;;;;;;;5.35;100.00;97298.88;5040175;28;20407;-81
2024/03/13 00:19:37;;;;;;;48.55;12.40;;;;;;;5.32;100.00;97297.50;5041796;28;20399;-81
2024/03/13 00:22:06;;;;;;;49.78;13.27;;;;;;;5.33;100.00;97299.13;5043583;28;20411;-81
2024/03/13 00:24:32;;;;;;;56.33;12.35;;;;;;;5.30;100.00;97293.47;5043682;28;20431;-80
2024/03/13 00:27:03;;;;;;;47.00;12.40;;;;;;;5.25;100.00;97290.72;5044589;28;20423;-80
2024/03/13 00:29:30;;;;;;;36.03;10.70;;;;;;;5.25;100.00;97294.16;5044847;28;20887;-81
2024/03/13 00:32:08;;;;;;;52.22;11.93;;;;;;;5.25;100.00;97288.09;5044940;28;20415;-82
2024/03/13 00:34:37;;;;;;;41.78;11.38;;;;;;;5.26;100.00;97279.97;5043802;28;20434;-82
2024/03/13 00:37:03;;;;;;;32.80;9.47;;;;;;;5.23;100.00;97272.56;5043002;28;20414;-81
2024/03/13 00:39:30;;;;;;;32.55;9.50;;;;;;;5.25;100.00;97278.41;5041631;28;20415;-81
2024/03/13 00:41:56;;;;;;;43.73;11.37;;;;;;;5.19;100.00;97271.38;5041475;28;20411;-81
2024/03/13 00:44:32;;;;;;;47.20;11.82;;;;;;;5.14;100.00;97262.59;5040135;28;20415;-82
2024/03/13 00:47:05;;;;;;;46.15;10.98;;;;;;;5.09;100.00;97254.56;5048427;28;20479;-78
2024/03/13 00:49:34;;;;;;;41.93;11.97;;;;;;;5.07;100.00;97245.09;5044936;28;20403;-81
2024/03/13 00:52:00;;;;;;;38.20;10.82;;;;;;;5.10;100.00;97245.69;5042377;28;20474;-81
2024/03/13 00:54:28;;;;;;;42.35;11.35;;;;;;;5.08;100.00;97248.53;5041107;28;20423;-81
2024/03/13 00:56:56;;;;;;;36.75;10.07;;;;;;;5.09;100.00;97250.13;5039813;28;20407;-82
2024/03/13 00:59:29;;;;;;;38.17;11.00;;;;;;;5.14;100.00;97246.84;5041469;28;20431;-82
2024/03/13 01:01:57;;;;;;;33.75;9.10;;;;;;;5.15;100.00;97254.50;5040855;28;20407;-82
2024/03/13 01:04:27;;;;;;;37.75;9.80;;;;;;;5.15;100.00;97244.00;5046604;28;20410;-81
2024/03/13 01:06:54;;;;;;;31.92;9.40;;;;;;;5.15;100.00;97253.69;5046153;28;20410;-81
2024/03/13 01:09:23;;;;;;;41.58;10.07;;;;;;;5.12;100.00;97248.88;5047964;28;20422;-81
2024/03/13 01:11:49;;;;;;;37.40;9.60;;;;;;;5.10;100.00;97253.56;5049008;28;20403;-81
2024/03/13 01:14:21;;;;;;;29.52;8.73;;;;;;;5.09;100.00;97244.09;5050667;28;20441;-80
2024/03/13 01:16:55;;;;;;;32.70;8.30;;;;;;;5.07;100.00;97245.09;5048322;28;20422;-82
2024/03/13 01:19:22;;;;;;;28.77;7.50;;;;;;;5.10;100.00;97251.75;5047722;28;20395;-82
2024/03/13 01:21:51;;;;;;;26.77;7.50;;;;;;;5.07;100.00;97254.78;5049938;28;20418;-82
2024/03/13 01:24:18;;;;;;;29.90;7.55;;;;;;;5.08;100.00;97248.53;5043494;28;20408;-82
2024/03/13 01:26:45;;;;;;;25.85;7.75;;;;;;;5.07;100.00;97252.97;5042172;28;20417;-82
2024/03/13 01:29:12;;;;;;;26.23;7.10;;;;;;;5.04;100.00;97253.41;5043089;28;20406;-82
2024/03/13 01:31:38;;;;;;;27.05;7.65;;;;;;;5.02;100.00;97252.84;5041769;28;20395;-82
2024/03/13 01:34:05;;;;;;;23.50;6.97;;;;;;;5.02;100.00;97252.03;5041353;28;20510;-82
2024/03/13 01:39:17;;;;;;;20.73;6.47;;;;;;;5.05;100.00;97252.38;5045013;28;20480;-82
2024/03/13 01:55:40;;;;;;;16.42;5.20;;;;;;;5.10;100.00;97251.75;5038810;28;20474;-81
2024/03/13 02:03:21;;;;;;;11.40;4.40;;;;;;;5.11;100.00;97257.78;5040068;28;20478;-82
2024/03/13 02:05:51;;;;;;;18.27;5.17;;;;;;;5.07;100.00;97247.72;5044463;28;20478;-80
2024/03/13 02:08:18;;;;;;;17.95;4.43;;;;;;;5.05;100.00;97246.31;5038161;28;20487;-80
2024/03/13 02:10:45;;;;;;;9.00;3.85;;;;;;;5.07;100.00;97242.47;5037047;28;20394;-81
2024/03/13 02:13:12;;;;;;;8.82;3.60;;;;;;;5.05;100.00;97238.47;5036796;28;20395;-81
2024/03/13 02:15:40;;;;;;;9.45;3.40;;;;;;;5.05;100.00;97246.31;5036818;28;20888;-82
2024/03/13 02:18:19;;;;;;;10.65;3.72;;;;;;;5.05;100.00;97231.41;5037289;28;20402;-81
2024/03/13 02:20:46;;;;;;;7.88;3.53;;;;;;;5.05;100.00;97230.59;5037279;28;20399;-80
2024/03/13 02:23:20;;;;;;;7.82;3.42;;;;;;;5.02;100.00;97229.22;5037182;28;20418;-79
2024/03/13 02:25:46;;;;;;;5.93;3.03;;;;;;;5.04;100.00;97223.75;5035823;28;20406;-79
2024/03/13 02:28:14;;;;;;;6.95;3.22;;;;;;;5.04;100.00;97224.53;5020385;28;20784;-82
2024/03/13 02:30:41;;;;;;;5.90;3.10;;;;;;;5.06;100.00;97229.56;5020277;28;20400;-82
2024/03/13 02:33:07;;;;;;;7.18;3.00;;;;;;;5.08;100.00;97224.91;5023904;28;20418;-81
2024/03/13 02:35:34;;;;;;;10.50;3.35;;;;;;;5.11;100.00;97221.88;5016936;28;20409;-81
2024/03/13 02:38:00;;;;;;;6.97;3.67;;;;;;;5.10;100.00;97219.47;5021485;28;20400;-81
2024/03/13 02:40:27;;;;;;;7.13;3.65;;;;;;;5.07;100.00;97223.31;5019534;28;20415;-81
2024/03/13 02:42:53;;;;;;;7.03;3.55;;;;;;;5.02;100.00;97218.72;5017013;28;20952;-79
2024/03/13 02:45:20;;;;;;;6.40;3.17;;;;;;;5.02;100.00;97212.69;5015893;28;20451;-81
2024/03/13 02:47:46;;;;;;;5.47;3.22;;;;;;;5.03;100.00;97206.41;5016111;28;20393;-82
2024/03/13 02:50:12;;;;;;;6.93;3.97;;;;;;;5.07;100.00;97220.69;5016248;28;20420;-81
2024/03/13 02:52:42;;;;;;;8.70;4.00;;;;;;;5.08;100.00;97214.41;5016481;28;20404;-82
2024/03/13 02:55:10;;;;;;;8.27;4.00;;;;;;;5.09;100.00;97220.47;5016527;28;20472;-82
2024/03/13 02:57:36;;;;;;;10.43;4.25;;;;;;;5.14;100.00;97215.34;5017296;28;20412;-82
2024/03/13 03:00:06;;;;;;;12.85;4.45;;;;;;;5.09;100.00;97202.91;5019212;28;20933;-82
2024/03/13 03:02:32;;;;;;;14.27;5.13;;;;;;;5.08;100.00;97203.94;5021561;28;20415;-81
2024/03/13 03:04:59;;;;;;;11.10;4.90;;;;;;;5.06;100.00;97209.38;5020397;28;20448;-79
2024/03/13 03:07:25;;;;;;;11.88;5.10;;;;;;;5.07;100.00;97215.44;5019745;28;20401;-81
2024/03/13 03:09:52;;;;;;;10.13;4.55;;;;;;;5.05;100.00;97213.03;5019666;28;20408;-81
2024/03/13 03:12:18;;;;;;;13.50;5.13;;;;;;;5.02;100.00;97217.94;5018530;28;20393;-82
2024/03/13 03:14:45;;;;;;;9.63;4.32;;;;;;;5.02;100.00;97225.81;5017499;28;20492;-82
2024/03/13 03:17:14;;;;;;;7.95;4.10;;;;;;;5.04;100.00;97218.50;5017440;28;20415;-79
2024/03/13 03:19:40;;;;;;;9.38;3.85;;;;;;;5.06;100.00;97222.50;5019650;28;20396;-79
2024/03/13 03:22:08;;;;;;;8.10;3.88;;;;;;;5.09;100.00;97229.16;5025682;28;20408;-79
2024/03/13 03:24:34;;;;;;;12.85;4.78;;;;;;;5.10;100.00;97222.06;5006782;28;20408;-81
2024/03/13 03:27:01;;;;;;;8.32;4.20;;;;;;;5.08;100.00;97222.28;5018963;28;20404;-81
2024/03/13 03:29:27;;;;;;;8.93;4.20;;;;;;;5.09;100.00;97223.91;5019480;28;20401;-82
2024/03/13 03:31:56;;;;;;;8.80;4.45;;;;;;;5.11;100.00;97223.69;5019560;28;20416;-81
2024/03/13 03:34:23;;;;;;;16.75;6.30;;;;;;;5.10;100.00;97220.25;5017684;28;20459;-82
2024/03/13 03:36:49;;;;;;;15.00;6.03;;;;;;;5.04;100.00;97229.78;5023471;28;20428;-82
2024/03/13 03:39:16;;;;;;;17.53;6.93;;;;;;;5.01;100.00;97230.25;5021385;28;20450;-81
2024/03/13 03:41:42;;;;;;;16.08;6.15;;;;;;;4.98;100.00;97228.03;5023384;28;20396;-82
2024/03/13 03:44:11;;;;;;;14.10;4.90;;;;;;;4.98;100.00;97237.72;5023406;28;20463;-82
2024/03/13 03:46:38;;;;;;;19.23;7.22;;;;;;;5.02;100.00;97236.28;5018752;28;20404;-82
2024/03/13 03:49:07;;;;;;;13.98;6.57;;;;;;;5.02;100.00;97233.66;5019088;28;20464;-81
2024/03/13 03:51:33;;;;;;;19.20;7.30;;;;;;;5.03;100.00;97233.47;5020526;28;20416;-81
2024/03/13 03:54:00;;;;;;;22.35;7.85;;;;;;;4.99;100.00;97239.34;5020577;28;20944;-82
2024/03/13 03:56:28;;;;;;;22.95;8.32;;;;;;;4.99;100.00;97234.09;5007068;28;20419;-82
2024/03/13 03:58:54;;;;;;;17.20;7.32;;;;;;;4.97;100.00;97231.69;5025108;28;20412;-82
2024/03/13 04:01:21;;;;;;;21.92;7.97;;;;;;;5.00;100.00;97238.31;5007578;28;20417;-81
2024/03/13 04:03:47;;;;;;;22.13;8.27;;;;;;;5.00;100.00;97225.22;5025418;28;20428;-82
2024/03/13 04:06:16;;;;;;;24.25;8.35;;;;;;;4.96;100.00;97232.69;5009244;28;20415;-81
2024/03/13 04:08:44;;;;;;;20.67;7.32;;;;;;;4.97;100.00;97231.69;5025470;28;20492;-82
2024/03/13 04:11:11;;;;;;;20.48;7.80;;;;;;;4.98;100.00;97230.66;5028556;28;20491;-82
2024/03/13 04:13:38;;;;;;;19.60;7.63;;;;;;;4.96;100.00;97237.94;5028514;28;20472;-82
2024/03/13 04:16:04;;;;;;;22.52;8.55;;;;;;;4.98;100.00;97237.72;5009066;28;20467;-81
2024/03/13 04:18:31;;;;;;;25.08;9.13;;;;;;;4.87;100.00;97233.22;5025065;28;20400;-81
2024/03/13 04:20:58;;;;;;;27.30;9.25;;;;;;;4.86;100.00;97226.38;5024858;28;20405;-82
2024/03/13 04:23:24;;;;;;;23.52;8.73;;;;;;;4.85;100.00;97228.19;5008056;28;20531;-82
2024/03/13 04:25:52;;;;;;;25.33;9.25;;;;;;;4.84;100.00;97231.84;5008525;28;20408;-80
2024/03/13 04:28:20;;;;;;;28.90;9.60;;;;;;;4.81;100.00;97234.88;5024958;28;20404;-82
2024/03/13 04:30:46;;;;;;;31.40;9.52;;;;;;;4.78;100.00;97230.09;5024161;28;20492;-81
2024/03/13 04:33:16;;;;;;;28.42;9.50;;;;;;;4.76;100.00;97240.00;5025304;28;20425;-81
2024/03/13 04:35:43;;;;;;;26.42;9.52;;;;;;;4.77;100.00;97232.94;5025331;28;20429;-82
2024/03/13 04:38:13;;;;;;;34.10;9.70;;;;;;;4.79;100.00;97236.13;5025544;28;20405;-81
2024/03/13 04:40:39;;;;;;;23.25;8.68;;;;;;;4.76;100.00;97237.38;5025869;28;20397;-81
2024/03/13 04:43:07;;;;;;;24.67;8.55;;;;;;;4.80;100.00;97241.16;5009882;28;20405;-82
2024/03/13 04:45:36;;;;;;;27.02;9.65;;;;;;;4.83;100.00;97242.53;5026281;28;20413;-82
2024/03/13 04:48:03;;;;;;;25.30;8.35;;;;;;;4.85;100.00;97251.00;5026880;28;20404;-80
2024/03/13 04:50:30;;;;;;;24.92;8.75;;;;;;;4.88;100.00;97246.13;5026538;28;20423;-81
2024/03/13 04:52:56;;;;;;;20.63;8.50;;;;;;;4.89;100.00;97250.34;5027814;28;20400;-81
2024/03/13 04:55:23;;;;;;;26.50;10.02;;;;;;;4.89;100.00;97252.94;5030126;28;20453;-80
2024/03/13 04:57:49;;;;;;;25.15;8.82;;;;;;;4.87;100.00;97255.00;5024624;28;20889;-80
2024/03/13 05:00:16;;;;;;;38.38;11.90;;;;;;;4.84;100.00;97255.44;5023668;28;20396;-81
2024/03/13 05:02:43;;;;;;;41.55;12.77;;;;;;;4.88;100.00;97258.44;5009795;28;20432;-81
2024/03/13 05:05:18;;;;;;;31.55;10.40;;;;;;;4.86;100.00;97263.09;5005907;28;20401;-81
2024/03/13 05:07:44;;;;;;;36.33;11.95;;;;;;;4.87;100.00;97259.47;5006418;28;20404;-81
2024/03/13 05:10:16;;;;;;;35.15;10.75;;;;;;;4.86;100.00;97261.28;5016711;28;20437;-80
2024/03/13 05:12:43;;;;;;;29.52;9.30;;;;;;;4.88;100.00;97266.31;5010536;28;20431;-80
2024/03/13 05:15:13;;;;;;;26.17;9.00;;;;;;;4.91;100.00;97271.09;5026173;28;20451;-81
2024/03/13 05:17:39;;;;;;;48.33;14.10;;;;;;;4.90;100.00;97262.44;5006410;28;20493;-81
2024/03/13 05:20:11;;;;;;;38.33;11.60;;;;;;;4.90;100.00;97262.44;5005351;28;20405;-81
2024/03/13 05:22:37;;;;;;;34.65;11.18;;;;;;;4.91;100.00;97271.91;5008362;28;20405;-81
2024/03/13 05:25:17;;;;;;;35.73;11.27;;;;;;;4.91;100.00;97269.28;5024496;28;20448;-80
2024/03/13 05:27:46;;;;;;;32.90;11.17;;;;;;;4.91;100.00;97273.72;5018510;28;20564;-81
2024/03/13 05:30:13;;;;;;;40.78;12.27;;;;;;;4.93;100.00;97283.00;5001188;28;20420;-80
2024/03/13 05:32:42;;;;;;;26.88;9.25;;;;;;;4.96;100.00;97279.13;5013693;28;20474;-81
2024/03/13 05:35:08;;;;;;;32.20;10.38;;;;;;;4.97;100.00;97281.53;5019921;28;20431;-81
2024/03/13 05:37:35;;;;;;;31.80;9.55;;;;;;;4.99;100.00;97270.81;5032628;28;20475;-80
2024/03/13 05:40:03;;;;;;;37.13;11.10;;;;;;;5.03;100.00;97278.06;5032844;28;20405;-82
2024/03/13 05:42:30;;;;;;;95.80;17.95;;;;;;;5.03;100.00;97280.69;5022871;28;20765;-82
2024/03/13 05:44:56;;;;;;;33.15;11.05;;;;;;;5.02;100.00;97278.25;5027765;28;20437;-81
2024/03/13 05:47:22;;;;;;;41.00;12.10;;;;;;;5.03;100.00;97278.06;5039565;28;20407;-80
2024/03/13 05:49:48;;;;;;;28.42;9.05;;;;;;;5.06;100.00;97274.16;5018035;28;20686;-82
2024/03/13 05:52:16;;;;;;;20.63;7.43;;;;;;;5.11;100.00;97289.28;5033868;28;20410;-79
2024/03/13 05:54:43;;;;;;;17.90;6.18;;;;;;;5.15;100.00;97287.81;5018344;28;20496;-80
2024/03/13 05:57:10;;;;;;;20.63;6.32;;;;;;;5.19;100.00;97289.75;5018563;28;20408;-79
2024/03/13 05:59:37;;;;;;;13.25;5.20;;;;;;;5.21;100.00;97295.59;5022237;28;20422;-82
2024/03/13 06:02:05;;;;;;;10.75;4.30;;;;;;;5.24;100.00;97295.16;5019827;28;20402;-82
2024/03/13 06:04:33;;;;;;;13.02;4.93;;;;;;;5.25;100.00;97294.16;5015358;28;20403;-81
2024/03/13 06:07:02;;;;;;;20.63;6.95;;;;;;;5.26;100.00;97294.97;5021235;28;20425;-82
2024/03/13 06:10:05;;;;;;;35.25;10.68;;;;;;;5.26;100.00;97300.22;5031401;28;20407;-81
2024/03/13 06:12:35;;;;;;;24.13;8.02;;;;;;;5.25;100.00;97296.78;5038638;28;20419;-80
2024/03/13 06:15:26;;;;;;;22.50;7.30;;;;;;;5.28;100.00;97300.78;5026055;28;20431;-80
2024/03/13 06:17:52;;;;;;;25.53;8.80;;;;;;;5.29;100.00;97299.75;5045253;28;20411;-81
2024/03/13 06:20:18;;;;;;;53.63;14.52;;;;;;;5.30;100.00;97303.97;5009786;28;20409;-81
2024/03/13 06:22:45;;;;;;;35.35;10.50;;;;;;;5.29;100.00;97310.25;5008297;28;20449;-80
2024/03/13 06:25:12;;;;;;;31.47;9.70;;;;;;;5.30;100.00;97307.41;5006381;28;20484;-83
2024/03/13 06:27:40;;;;;;;43.97;12.00;;;;;;;5.32;100.00;97312.44;5006862;28;20427;-81
2024/03/13 06:30:12;;;;;;;59.22;15.95;;;;;;;5.30;100.00;97315.28;5020659;28;20773;-81
2024/03/13 06:32:39;;;;;;;51.42;14.57;;;;;;;5.29;100.00;97316.31;5018980;28;20442;-83
2024/03/13 06:35:05;;;;;;;40.92;11.88;;;;;;;5.31;100.00;97314.25;5018162;28;20512;-82
2024/03/13 06:37:31;;;;;;;63.95;16.17;;;;;;;5.29;100.00;97315.50;5011980;28;20431;-79
2024/03/13 06:39:58;;;;;;;55.08;15.27;;;;;;;5.27;100.00;97325.41;5011167;28;20455;-80
2024/03/13 06:42:25;;;;;;;59.08;16.17;;;;;;;5.22;100.00;97325.25;5020669;28;20399;-80
2024/03/13 06:44:51;;;;;;;54.60;14.93;;;;;;;5.24;100.00;97316.16;5026752;28;20403;-80
2024/03/13 06:47:17;;;;;;;49.85;14.38;;;;;;;5.29;100.00;97318.94;5002237;28;20451;-82
2024/03/13 06:49:47;;;;;;;39.55;11.50;;;;;;;5.34;100.00;97315.63;5023928;28;20447;-83
2024/03/13 06:52:13;;;;;;;29.55;9.43;;;;;;;5.41;100.00;97325.03;5018333;28;20416;-84
2024/03/13 06:54:40;;;;;;;22.27;7.80;;;;;;;5.48;100.00;97324.19;5018382;28;20432;-83
2024/03/13 06:57:06;;;;;;;52.10;14.43;;;;;;;5.53;100.00;97333.00;5011746;28;20753;-82
2024/03/13 06:59:33;;;;;;;29.83;8.90;;;;;;;5.60;100.00;97327.66;5017794;28;20399;-79
2024/03/13 07:02:00;;;;;;;18.58;6.72;;;;;;;5.65;100.00;97331.22;5016269;28;20411;-83
2024/03/13 07:04:27;;;;;;;31.85;9.63;;;;;;;5.69;100.00;97329.78;5025737;28;20764;-80
2024/03/13 07:06:57;;;;;;;25.97;9.10;;;;;;;5.73;100.00;97330.91;5026785;28;20892;-82
2024/03/13 07:09:24;;;;;;;38.67;10.95;;;;;;;5.76;100.00;97330.50;5021873;28;20408;-82
2024/03/13 07:11:51;;;;;;;51.30;14.30;;;;;;;5.76;100.00;97330.50;5018427;28;20407;-81
2024/03/13 07:14:17;;;;;;;54.67;14.57;;;;;;;5.75;100.00;97328.88;5033641;28;20427;-83
2024/03/13 07:16:44;;;;;;;49.42;15.15;;;;;;;5.80;100.00;97328.22;5030733;28;20401;-84
2024/03/13 07:19:11;;;;;;;36.13;11.45;;;;;;;5.86;100.00;97332.59;5014758;28;20403;-83
2024/03/13 07:21:38;;;;;;;59.53;16.27;;;;;;;5.86;100.00;97334.41;5021584;28;20439;-83
2024/03/13 07:24:05;;;;;;;47.05;14.73;;;;;;;5.88;100.00;97335.81;5016804;28;20474;-84
2024/03/13 07:26:34;;;;;;;52.38;16.05;;;;;;;5.91;100.00;97339.84;5032461;28;20399;-82
2024/03/13 07:29:00;;;;;;;54.70;15.70;;;;;;;5.92;100.00;97338.81;5016384;28;20551;-82
2024/03/13 07:31:27;;;;;;;50.33;14.43;;;;;;;5.99;100.00;97345.59;5023655;28;20419;-83
2024/03/13 07:33:54;;;;;;;51.72;15.25;;;;;;;6.03;100.00;97336.22;5020507;28;20453;-82
2024/03/13 07:36:23;;;;;;;56.63;16.27;;;;;;;5.92;100.00;97344.06;5028364;28;20437;-81
2024/03/13 07:38:49;;;;;;;43.42;14.20;;;;;;;6.02;100.00;97336.44;5012358;28;20415;-82
2024/03/13 07:41:15;;;;;;;49.40;16.25;;;;;;;5.83;100.00;97344.34;5015396;28;20419;-82
2024/03/13 07:43:42;;;;;;;53.33;16.25;;;;;;;5.87;100.00;97339.44;5021253;28;20419;-82
2024/03/13 07:46:11;;;;;;;46.92;14.48;;;;;;;5.94;100.00;97342.81;5021120;28;20416;-83
2024/03/13 07:48:37;;;;;;;47.78;14.18;;;;;;;5.99;100.00;97350.03;5031619;28;20458;-82
2024/03/13 07:51:06;;;;;;;32.75;12.18;;;;;;;6.10;100.00;97346.63;5026917;28;20937;-81
2024/03/13 07:53:33;;;;;;;33.72;11.80;;;;;;;6.22;100.00;97355.38;5021178;28;20416;-82
2024/03/13 07:55:59;;;;;;;22.47;8.70;;;;;;;6.35;100.00;97359.63;5021584;28;20506;-80
2024/03/13 07:58:25;;;;;;;17.42;6.80;;;;;;;6.46;100.00;97359.69;5016520;28;20438;-81
2024/03/13 08:00:52;;;;;;;9.88;5.47;;;;;;;6.55;100.00;97362.75;5021900;28;20407;-82
2024/03/13 08:03:19;;;;;;;12.02;5.63;;;;;;;6.62;100.00;97366.09;5012122;28;20418;-81
2024/03/13 08:05:45;;;;;;;14.95;6.38;;;;;;;6.63;100.00;97367.69;5024763;28;20410;-80
2024/03/13 08:08:12;;;;;;;10.32;5.07;;;;;;;6.69;100.00;97364.16;5021591;28;20432;-80
2024/03/13 08:10:38;;;;;;;13.40;7.07;;;;;;;6.73;100.00;97364.53;5019988;28;20407;-81
2024/03/13 08:13:05;;;;;;;14.93;7.68;;;;;;;6.70;100.00;97364.97;5024112;28;20402;-80
2024/03/13 08:15:31;;;;;;;11.23;5.72;;;;;;;6.79;100.00;97374.13;5024056;28;20473;-82
2024/03/13 08:17:58;;;;;;;26.07;8.83;;;;;;;6.78;100.00;97373.31;5026759;28;20438;-82
2024/03/13 08:20:25;;;;;;;17.90;7.35;;;;;;;6.83;100.00;97378.72;5015323;28;20403;-81
2024/03/13 08:22:51;;;;;;;14.73;7.15;;;;;;;6.86;100.00;97378.25;5023662;28;20426;-82
2024/03/13 08:25:19;;;;;;;14.00;7.55;;;;;;;6.81;100.00;97375.50;5040870;28;20418;-84
2024/03/13 08:27:46;;;;;;;9.70;5.35;;;;;;;6.93;100.00;97380.78;5036250;28;20401;-81
2024/03/13 08:30:12;;;;;;;10.13;6.10;;;;;;;6.99;100.00;97379.88;5023382;28;20437;-80
2024/03/13 08:32:39;;;;;;;11.63;6.00;;;;;;;7.02;100.00;97375.97;5015074;28;20411;-81
2024/03/13 08:35:09;;;;;;;6.70;4.78;;;;;;;7.15;100.00;97379.19;5010836;28;20435;-80
2024/03/13 08:37:35;;;;;;;7.85;4.75;;;;;;;7.27;100.00;97385.25;5022185;28;20422;-82
2024/03/13 08:40:02;;;;;;;7.97;4.93;;;;;;;7.37;100.00;97397.84;5021163;28;20504;-82
2024/03/13 08:42:28;;;;;;;10.68;5.88;;;;;;;7.38;100.00;97394.16;5021402;28;20418;-80
2024/03/13 08:44:54;;;;;;;10.18;6.18;;;;;;;7.43;100.00;97396.13;5007016;28;20739;-80
2024/03/13 08:47:21;;;;;;;9.07;5.43;;;;;;;7.38;100.00;97397.59;5010779;28;20412;-81
2024/03/13 08:49:48;;;;;;;10.43;5.63;;;;;;;7.40;100.00;97400.03;5024457;28;20430;-81
2024/03/13 08:52:14;;;;;;;8.80;5.45;;;;;;;7.42;100.00;97395.34;5018318;28;20964;-80
2024/03/13 08:54:43;;;;;;;9.18;4.90;;;;;;;7.46;100.00;97400.91;5011560;28;20425;-80
2024/03/13 08:57:10;;;;;;;11.17;5.03;;;;;;;7.48;100.00;97402.31;5006521;28;20408;-81
2024/03/13 08:59:36;;;;;;;10.27;4.97;;;;;;;7.43;100.00;97401.41;5019591;28;20416;-81
2024/03/13 09:02:05;;;;;;;7.72;4.82;;;;;;;7.54;100.00;97411.09;5027581;28;20764;-80
2024/03/13 09:04:34;;;;;;;7.72;4.78;;;;;;;7.62;100.00;97406.28;5030300;28;20892;-82
2024/03/13 09:07:02;;;;;;;6.18;3.80;;;;;;;7.81;100.00;97409.59;5013894;28;20403;-82
2024/03/13 09:09:29;;;;;;;5.43;3.33;;;;;;;7.93;100.00;97406.91;5031228;28;20406;-81
2024/03/13 09:11:56;;;;;;;3.67;2.72;;;;;;;8.05;100.00;97418.22;5025575;28;20427;-80
2024/03/13 09:14:26;;;;;;;3.63;2.60;;;;;;;8.11;100.00;97422.59;5025590;28;20876;-82
2024/03/13 09:16:52;;;;;;;6.63;2.50;;;;;;;8.00;100.00;97418.94;5023079;28;20885;-81
2024/03/13 09:19:19;;;;;;;4.60;2.17;;;;;;;8.05;100.00;97420.84;5010623;28;20476;-81
2024/03/13 09:21:48;;;;;;;2.88;1.73;;;;;;;8.12;100.00;97422.31;5023320;28;20404;-82
2024/03/13 09:24:15;;;;;;;2.25;1.70;;;;;;;8.25;100.00;97421.28;5022948;28;20451;-82
2024/03/13 09:26:41;;;;;;;1.65;1.50;;;;;;;8.31;100.00;97417.72;5030432;28;20395;-84
2024/03/13 09:29:08;;;;;;;3.70;1.60;;;;;;;8.24;100.00;97418.88;5031557;28;20410;-82
2024/03/13 09:31:40;;;;;;;2.00;1.30;;;;;;;8.35;100.00;97425.94;5030243;28;20410;-80
2024/03/13 09:34:10;;;;;;;1.60;1.50;;;;;;;8.49;100.00;97422.00;5026937;28;20766;-80
2024/03/13 09:36:37;;;;;;;1.98;1.45;;;;;;;8.56;100.00;97427.94;5039071;28;20402;-80
2024/03/13 09:39:06;;;;;;;1.33;1.23;;;;;;;8.62;100.00;97420.91;5031579;28;20400;-79
2024/03/13 09:41:33;;;;;;;2.43;1.23;;;;;;;8.79;100.00;97425.19;5040442;28;20430;-79
2024/03/13 09:44:01;;;;;;;1.63;1.30;;;;;;;8.74;100.00;97425.09;5040236;28;20419;-80
2024/03/13 09:46:28;;;;;;;1.40;1.30;;;;;;;8.75;100.00;97429.31;5034506;28;20410;-80
2024/03/13 09:48:55;;;;;;;1.77;1.20;;;;;;;8.73;100.00;97430.59;5022934;28;20890;-79
2024/03/13 09:51:22;;;;;;;3.22;1.50;;;;;;;8.65;100.00;97431.78;5021704;28;20395;-81
2024/03/13 09:53:49;;;;;;;1.90;1.50;;;;;;;8.71;100.00;97430.03;5020489;28;20430;-83
2024/03/13 09:56:16;;;;;;;4.40;1.50;;;;;;;8.72;100.00;97431.66;5021438;28;20478;-79
2024/03/13 09:58:45;;;;;;;1.58;1.20;;;;;;;9.01;100.00;97429.75;5024136;28;20473;-81
2024/03/13 10:01:11;;;;;;;2.47;1.65;;;;;;;8.97;100.00;97434.69;5020818;28;20464;-80
2024/03/13 10:03:38;;;;;;;1.92;1.40;;;;;;;9.04;100.00;97437.19;5023388;28;20732;-81
2024/03/13 10:06:05;;;;;;;1.10;1.00;;;;;;;9.26;100.00;97438.06;5037446;28;20434;-81
2024/03/13 10:08:31;;;;;;;2.40;1.40;;;;;;;9.38;100.00;97432.69;5029493;28;20405;-81
2024/03/13 10:11:00;;;;;;;4.85;1.50;;;;;;;9.25;100.00;97442.53;5004715;28;20743;-80
2024/03/13 10:13:26;;;;;;;3.00;1.30;;;;;;;9.33;100.00;97438.69;5003394;28;20405;-82
2024/03/13 10:15:53;;;;;;;3.80;1.35;;;;;;;9.44;100.00;97448.38;5006075;28;20453;-80
2024/03/13 10:18:19;;;;;;;1.65;1.35;;;;;;;9.63;100.00;97446.25;5021352;28;20441;-82
2024/03/13 10:20:47;;;;;;;1.50;1.10;;;;;;;9.85;100.00;97452.38;5025204;28;20402;-82
2024/03/13 10:23:13;;;;;;;1.17;1.08;;;;;;;10.01;100.00;97448.91;5020902;28;20756;-82
2024/03/13 10:25:39;;;;;;;1.93;1.20;;;;;;;10.22;100.00;97446.56;5019963;28;20410;-80
2024/03/13 10:28:06;;;;;;;2.70;1.20;;;;;;;10.15;100.00;97441.38;5020898;28;20413;-81
2024/03/13 10:30:32;;;;;;;2.53;1.20;;;;;;;10.14;100.00;97453.03;5012805;28;20397;-80
2024/03/13 10:32:59;;;;;;;1.48;1.38;;;;;;;9.97;100.00;97447.00;5001261;28;20405;-79
2024/03/13 10:35:26;;;;;;;1.80;1.05;;;;;;;9.98;100.00;97453.88;5001191;28;20502;-78
2024/03/13 10:37:52;;;;;;;2.80;1.38;;;;;;;9.84;100.00;97448.16;5004437;28;20402;-82
2024/03/13 10:40:19;;;;;;;2.20;1.20;;;;;;;9.80;100.00;97446.22;5020859;28;20391;-81
2024/03/13 10:42:47;;;;;;;1.37;1.00;;;;;;;9.84;100.00;97452.66;5020688;28;20419;-81
2024/03/13 10:45:14;;;;;;;1.20;1.10;;;;;;;9.82;100.00;97446.81;5021943;28;20478;-80
2024/03/13 10:47:40;;;;;;;2.08;1.48;;;;;;;9.90;100.00;97457.75;5016257;28;20412;-80
2024/03/13 10:50:08;;;;;;;3.17;1.20;;;;;;;9.90;100.00;97449.81;5000411;28;20448;-80
2024/03/13 10:52:35;;;;;;;0.95;0.95;;;;;;;9.93;100.00;97451.16;5021056;28;20405;-81
2024/03/13 10:55:02;;;;;;;1.90;1.30;;;;;;;9.80;100.00;97447.03;5028819;28;20419;-80
2024/03/13 10:57:28;;;;;;;1.30;1.20;;;;;;;9.86;100.00;97455.81;5014081;28;20405;-78
2024/03/13 10:59:54;;;;;;;0.95;0.95;;;;;;;9.89;100.00;97458.00;5009294;28;20430;-81
2024/03/13 11:02:21;;;;;;;1.10;1.00;;;;;;;9.92;100.00;97454.88;5008090;28;20399;-80
2024/03/13 11:04:49;;;;;;;2.25;1.40;;;;;;;9.90;100.00;97454.31;5005427;28;20409;-80
2024/03/13 11:07:16;;;;;;;1.40;1.13;;;;;;;9.83;100.00;97454.50;5007323;28;20404;-80
2024/03/13 11:09:43;;;;;;;1.00;1.00;;;;;;;9.80;100.00;97460.25;5003860;28;20416;-79
2024/03/13 11:12:10;;;;;;;0.98;0.90;;;;;;;9.83;100.00;97464.25;5010893;28;20559;-80
2024/03/13 11:14:36;;;;;;;1.33;1.20;;;;;;;9.84;100.00;97465.88;5009988;28;20427;-79
2024/03/13 11:17:03;;;;;;;1.20;1.00;;;;;;;9.83;100.00;97462.41;5005179;28;20830;-81
2024/03/13 11:19:32;;;;;;;1.17;1.10;;;;;;;9.80;100.00;97459.44;5012981;28;20405;-82
2024/03/13 11:21:59;;;;;;;1.45;1.20;;;;;;;9.81;100.00;97461.06;5019730;28;20411;-81
2024/03/13 11:24:25;;;;;;;1.75;1.23;;;;;;;9.81;100.00;97461.06;5021248;28;20410;-81
2024/03/13 11:26:52;;;;;;;1.40;1.20;;;;;;;9.86;100.00;97463.75;5015642;28;20487;-81
2024/03/13 11:29:20;;;;;;;1.50;1.17;;;;;;;9.90;100.00;97462.25;5022047;28;20474;-81
2024/03/13 11:31:48;;;;;;;1.60;1.25;;;;;;;9.88;100.00;97454.53;5018015;28;20414;-78
2024/03/13 11:34:14;;;;;;;1.42;1.20;;;;;;;9.83;100.00;97457.13;5013525;28;20401;-79
2024/03/13 11:36:42;;;;;;;1.50;1.10;;;;;;;9.86;100.00;97469.84;4998361;28;20403;-79
2024/03/13 11:39:15;;;;;;;1.20;1.10;;;;;;;9.89;100.00;97464.09;5013891;28;20784;-79
2024/03/13 11:41:42;;;;;;;1.00;0.90;;;;;;;9.91;100.00;97462.00;5024765;28;20406;-79
2024/03/13 11:44:10;;;;;;;1.17;1.08;;;;;;;9.91;100.00;97466.50;5016130;28;20820;-80
2024/03/13 11:46:44;;;;;;;1.27;1.17;;;;;;;9.87;100.00;97462.72;5021406;28;20422;-79
2024/03/13 11:49:10;;;;;;;1.20;1.10;;;;;;;9.86;100.00;97466.41;5012486;28;20441;-78
2024/03/13 11:51:36;;;;;;;1.33;1.20;;;;;;;9.88;100.00;97470.41;5008862;28;20901;-78